createdAt,value
2023-03-03T00:01:02.334Z,4.21
2023-03-03T00:03:29.942Z,4.24
2023-03-03T00:05:57.487Z,4.31
2023-03-03T00:08:25.148Z,4.28
2023-03-03T00:10:55.472Z,4.32
2023-03-03T00:13:25.251Z,4.28
2023-03-03T00:15:53.735Z,4.20
2023-03-03T00:18:31.114Z,4.18
2023-03-03T00:21:00.952Z,4.17
2023-03-03T00:23:32.172Z,4.13
2023-03-03T00:26:01.155Z,4.15
2023-03-03T00:28:31.602Z,4.09
2023-03-03T00:31:00.800Z,4.05
2023-03-03T00:33:35.771Z,4.02
2023-03-03T00:36:28.777Z,4.01
2023-03-03T00:39:13.853Z,3.96
2023-03-03T00:41:42.699Z,3.95
2023-03-03T00:44:36.438Z,4.00
2023-03-03T00:47:15.272Z,3.96
2023-03-03T00:49:43.372Z,3.97
2023-03-03T00:52:15.152Z,3.97
2023-03-03T00:54:42.792Z,3.94
2023-03-03T00:57:13.001Z,3.95
2023-03-03T00:59:40.977Z,3.88
2023-03-03T01:02:08.740Z,3.92
2023-03-03T01:04:36.241Z,3.98
2023-03-03T01:07:03.836Z,3.95
2023-03-03T01:09:31.498Z,3.92
2023-03-03T01:11:59.111Z,3.90
2023-03-03T01:14:28.115Z,3.93
2023-03-03T01:16:55.670Z,3.95
2023-03-03T01:19:23.255Z,3.90
2023-03-03T01:21:50.777Z,3.91
2023-03-03T01:24:18.400Z,3.89
2023-03-03T01:26:45.891Z,3.91
2023-03-03T01:29:13.581Z,3.87
2023-03-03T01:31:42.428Z,3.80
2023-03-03T01:34:09.989Z,3.78
2023-03-03T01:36:37.813Z,3.80
2023-03-03T01:39:05.830Z,3.78
2023-03-03T01:41:33.784Z,3.71
2023-03-03T01:44:01.749Z,3.66
2023-03-03T01:46:54.545Z,3.71
2023-03-03T01:49:25.740Z,3.70
2023-03-03T01:51:55.674Z,3.66
2023-03-03T01:54:26.710Z,3.69
2023-03-03T01:56:57.330Z,3.67
2023-03-03T01:59:26.757Z,3.57
2023-03-03T02:01:55.661Z,3.56
2023-03-03T02:04:23.575Z,3.55
2023-03-03T02:06:53.733Z,3.55
2023-03-03T02:09:24.984Z,3.58
2023-03-03T02:11:54.195Z,3.51
2023-03-03T02:14:21.669Z,3.47
2023-03-03T02:16:49.184Z,3.43
2023-03-03T02:19:25.237Z,3.37
2023-03-03T02:21:53.218Z,3.38
2023-03-03T02:24:27.141Z,3.36
2023-03-03T02:26:56.726Z,3.28
2023-03-03T02:29:24.261Z,3.31
2023-03-03T02:31:51.864Z,3.29
2023-03-03T02:34:19.484Z,3.30
2023-03-03T02:36:47.046Z,3.29
2023-03-03T02:39:18.094Z,3.26
2023-03-03T02:41:48.152Z,3.23
2023-03-03T02:44:19.567Z,3.21
2023-03-03T02:46:48.407Z,3.19
2023-03-03T02:49:17.964Z,3.18
2023-03-03T02:51:45.706Z,3.20
2023-03-03T02:54:14.590Z,3.19
2023-03-03T02:56:42.215Z,3.16
2023-03-03T02:59:09.805Z,3.14
2023-03-03T03:01:38.720Z,3.17
2023-03-03T03:04:09.390Z,3.13
2023-03-03T03:06:37.112Z,3.06
2023-03-03T03:09:04.760Z,3.04
2023-03-03T03:11:32.284Z,3.03
2023-03-03T03:13:59.849Z,2.97
2023-03-03T03:16:27.356Z,2.95
2023-03-03T03:18:56.660Z,2.97
2023-03-03T03:21:24.270Z,2.99
2023-03-03T03:23:51.819Z,2.97
2023-03-03T03:26:21.003Z,2.96
2023-03-03T03:28:48.964Z,2.89
2023-03-03T03:31:17.172Z,2.84
2023-03-03T03:33:44.804Z,2.86
2023-03-03T03:36:13.741Z,2.81
2023-03-03T03:38:41.242Z,2.83
2023-03-03T03:41:08.969Z,2.74
2023-03-03T03:43:36.783Z,2.69
2023-03-03T03:46:04.451Z,2.69
2023-03-03T03:48:32.213Z,2.67
2023-03-03T03:50:59.780Z,2.66
2023-03-03T03:53:28.906Z,2.70
2023-03-03T03:55:56.434Z,2.67
2023-03-03T03:58:23.990Z,2.62
2023-03-03T04:00:51.656Z,2.63
2023-03-03T04:03:19.335Z,2.56
2023-03-03T04:05:46.945Z,2.57
2023-03-03T04:08:14.579Z,2.50
2023-03-03T04:10:43.410Z,2.48
2023-03-03T04:13:10.928Z,2.53
2023-03-03T04:15:38.632Z,2.50
2023-03-03T04:18:06.210Z,2.48
2023-03-03T04:20:33.685Z,2.42
2023-03-03T04:23:01.210Z,2.38
2023-03-03T04:25:28.788Z,2.42
2023-03-03T04:27:57.683Z,2.35
2023-03-03T04:30:26.833Z,2.37
2023-03-03T04:32:54.323Z,2.34
2023-03-03T04:35:22.014Z,2.28
2023-03-03T04:37:49.616Z,2.22
2023-03-03T04:40:18.259Z,2.22
2023-03-03T04:42:45.883Z,2.20
2023-03-03T04:45:14.801Z,2.22
2023-03-03T04:47:42.372Z,2.20
2023-03-03T04:50:11.707Z,2.21
2023-03-03T04:52:39.546Z,2.20
2023-03-03T04:55:10.358Z,2.20
2023-03-03T04:57:38.057Z,2.20
2023-03-03T05:00:07.273Z,2.16
2023-03-03T05:02:36.358Z,2.14
2023-03-03T05:05:04.055Z,2.19
2023-03-03T05:07:31.601Z,2.15
2023-03-03T05:09:59.101Z,2.21
2023-03-03T05:12:26.978Z,2.19
2023-03-03T05:14:54.533Z,2.15
2023-03-03T05:17:22.135Z,2.07
2023-03-03T05:19:51.078Z,2.05
2023-03-03T05:22:18.610Z,2.01
2023-03-03T05:24:49.165Z,1.91
2023-03-03T05:27:16.926Z,1.87
2023-03-03T05:29:44.880Z,1.90
2023-03-03T05:32:12.693Z,1.76
2023-03-03T05:34:40.590Z,1.69
2023-03-03T05:37:12.754Z,1.55
2023-03-03T05:39:40.734Z,1.59
2023-03-03T05:42:08.268Z,1.53
2023-03-03T05:44:35.876Z,1.46
2023-03-03T05:47:03.333Z,1.44
2023-03-03T05:49:30.900Z,1.40
2023-03-03T05:51:59.142Z,1.26
2023-03-03T05:54:27.988Z,1.30
2023-03-03T05:56:57.228Z,1.28
2023-03-03T05:59:25.669Z,1.20
2023-03-03T06:01:53.293Z,1.17
2023-03-03T06:04:20.895Z,1.10
2023-03-03T06:06:48.500Z,1.06
2023-03-03T06:09:18.983Z,1.05
2023-03-03T06:11:48.406Z,1.03
2023-03-03T06:14:16.205Z,1.03
2023-03-03T06:16:44.146Z,1.00
2023-03-03T06:19:11.927Z,0.90
2023-03-03T06:21:39.676Z,0.85
2023-03-03T06:24:07.936Z,0.90
2023-03-03T06:26:35.718Z,0.83
2023-03-03T06:29:04.619Z,0.83
2023-03-03T06:31:32.462Z,0.86
2023-03-03T06:34:00.075Z,0.85
2023-03-03T06:36:27.989Z,0.86
2023-03-03T06:38:56.588Z,0.86
2023-03-03T06:41:24.207Z,0.88
2023-03-03T06:43:51.895Z,0.90
2023-03-03T06:46:23.949Z,0.91
2023-03-03T06:48:51.509Z,0.92
2023-03-03T06:51:26.845Z,0.89
2023-03-03T06:53:56.488Z,0.89
2023-03-03T06:56:25.296Z,0.88
2023-03-03T06:58:55.434Z,0.91
2023-03-03T07:01:24.506Z,0.90
2023-03-03T07:03:52.344Z,0.87
2023-03-03T07:06:25.302Z,0.89
2023-03-03T07:08:53.445Z,0.89
2023-03-03T07:11:22.367Z,0.87
2023-03-03T07:13:51.481Z,0.91
2023-03-03T07:16:20.499Z,0.91
2023-03-03T07:18:52.009Z,0.99
2023-03-03T07:21:21.711Z,1.02
2023-03-03T07:23:50.645Z,1.09
2023-03-03T07:26:19.960Z,1.06
2023-03-03T07:28:54.547Z,1.01
2023-03-03T07:31:32.119Z,1.08
2023-03-03T07:34:02.048Z,1.08
2023-03-03T07:36:31.883Z,1.12
2023-03-03T07:39:01.364Z,1.11
2023-03-03T07:41:29.463Z,1.12
2023-03-03T07:44:01.235Z,1.13
2023-03-03T07:46:32.167Z,1.20
2023-03-03T07:49:01.464Z,1.28
2023-03-03T07:51:31.724Z,1.37
2023-03-03T07:54:16.208Z,1.38
2023-03-03T07:56:43.711Z,1.45
2023-03-03T07:59:21.034Z,1.46
2023-03-03T08:01:49.697Z,1.43
2023-03-03T08:04:23.165Z,1.44
2023-03-03T08:06:52.455Z,1.45
2023-03-03T08:09:44.931Z,1.54
2023-03-03T08:12:27.034Z,1.56
2023-03-03T08:14:55.525Z,1.62
2023-03-03T08:17:24.757Z,1.66
2023-03-03T08:19:54.799Z,1.79
2023-03-03T08:22:30.683Z,1.94
2023-03-03T08:24:58.234Z,2.05
2023-03-03T08:27:26.060Z,2.07
2023-03-03T08:29:53.584Z,1.98
2023-03-03T08:32:21.224Z,1.95
2023-03-03T08:34:48.790Z,2.00
2023-03-03T08:37:17.607Z,2.02
2023-03-03T08:39:45.705Z,2.13
2023-03-03T08:42:16.099Z,2.24
2023-03-03T08:44:43.771Z,2.27
2023-03-03T08:47:11.418Z,2.37
2023-03-03T08:49:39.965Z,2.39
2023-03-03T08:52:07.477Z,2.39
2023-03-03T08:54:36.448Z,2.43
2023-03-03T08:57:03.930Z,2.52
2023-03-03T08:59:31.751Z,2.60
2023-03-03T09:01:59.341Z,2.64
2023-03-03T09:04:27.489Z,2.66
2023-03-03T09:06:55.138Z,2.78
2023-03-03T09:09:22.701Z,2.80
2023-03-03T09:11:51.554Z,2.71
2023-03-03T09:14:20.926Z,2.67
2023-03-03T09:16:52.092Z,2.70
2023-03-03T09:19:23.606Z,2.79
2023-03-03T09:21:52.443Z,2.88
2023-03-03T09:24:25.630Z,2.79
2023-03-03T09:26:54.872Z,2.76
2023-03-03T09:29:28.149Z,2.79
2023-03-03T09:31:57.544Z,2.85
2023-03-03T09:34:27.808Z,2.86
2023-03-03T09:36:56.279Z,2.97
2023-03-03T09:39:26.131Z,3.09
2023-03-03T09:42:07.551Z,3.25
2023-03-03T09:44:52.864Z,3.45
2023-03-03T09:47:48.106Z,3.36
2023-03-03T09:50:26.685Z,3.22
2023-03-03T09:52:58.990Z,3.19
2023-03-03T09:55:37.247Z,3.21
2023-03-03T09:58:45.735Z,3.18
2023-03-03T10:01:32.267Z,3.07
2023-03-03T10:04:18.029Z,3.20
2023-03-03T10:06:48.206Z,3.23
2023-03-03T10:09:39.969Z,3.28
2023-03-03T10:12:12.346Z,3.34
2023-03-03T10:14:50.410Z,3.43
2023-03-03T10:17:35.294Z,3.46
2023-03-03T10:20:15.432Z,3.47
2023-03-03T10:22:49.845Z,3.56
2023-03-03T10:25:24.118Z,3.61
2023-03-03T10:28:02.318Z,3.77
2023-03-03T10:30:51.221Z,3.80
2023-03-03T10:33:30.715Z,3.84
2023-03-03T10:36:16.558Z,3.87
2023-03-03T10:38:55.459Z,3.96
2023-03-03T10:41:40.038Z,3.97
2023-03-03T10:44:25.654Z,4.11
2023-03-03T10:47:07.805Z,4.12
2023-03-03T10:49:46.128Z,4.25
2023-03-03T10:52:33.798Z,4.22
2023-03-03T10:55:39.404Z,4.29
2023-03-03T10:58:31.288Z,4.44
2023-03-03T11:01:05.551Z,4.51
2023-03-03T11:03:56.879Z,4.56
2023-03-03T11:06:29.267Z,4.60
2023-03-03T11:09:03.439Z,4.71
2023-03-03T11:11:41.043Z,4.72
2023-03-03T11:14:13.366Z,4.79
2023-03-03T11:16:53.607Z,4.96
2023-03-03T11:19:38.674Z,5.02
2023-03-03T11:22:19.427Z,5.04
2023-03-03T11:24:55.727Z,5.12
2023-03-03T11:27:31.920Z,5.20
2023-03-03T11:30:07.947Z,5.24
2023-03-03T11:32:41.683Z,5.26
2023-03-03T11:35:21.687Z,5.25
2023-03-03T11:37:59.992Z,5.29
2023-03-03T11:40:31.436Z,5.38
2023-03-03T11:43:05.013Z,5.40
2023-03-03T11:45:36.706Z,5.47
2023-03-03T11:48:09.458Z,5.43
2023-03-03T11:50:40.035Z,5.47
2023-03-03T11:53:23.696Z,5.49
2023-03-03T11:55:56.655Z,5.55
2023-03-03T11:58:27.756Z,5.63
2023-03-03T12:00:59.671Z,5.61
2023-03-03T12:03:30.432Z,5.64
2023-03-03T12:06:07.945Z,5.68
2023-03-03T12:08:45.020Z,5.74
2023-03-03T12:11:19.253Z,6.05
2023-03-03T12:13:54.499Z,6.07
2023-03-03T12:16:30.264Z,5.99
2023-03-03T12:19:28.347Z,6.03
2023-03-03T12:22:07.567Z,6.07
2023-03-03T12:24:46.174Z,6.03
2023-03-03T12:27:20.103Z,6.18
2023-03-03T12:29:55.023Z,6.28
2023-03-03T12:32:35.239Z,6.30
2023-03-03T12:35:07.734Z,6.34
2023-03-03T12:37:52.639Z,6.31
2023-03-03T12:40:22.984Z,6.37
2023-03-03T12:43:03.536Z,6.26
2023-03-03T12:45:38.884Z,6.37
2023-03-03T12:48:11.009Z,6.49
2023-03-03T12:50:44.720Z,6.54
2023-03-03T12:53:20.555Z,6.54
2023-03-03T12:55:54.601Z,6.54
2023-03-03T12:58:35.177Z,6.47
2023-03-03T13:01:12.182Z,6.68
2023-03-03T13:03:55.019Z,6.73
2023-03-03T13:06:28.851Z,6.64
2023-03-03T13:09:21.693Z,6.68
2023-03-03T13:12:05.772Z,6.70
2023-03-03T13:14:38.902Z,6.82
2023-03-03T13:17:17.136Z,6.81
2023-03-03T13:19:49.089Z,6.78
2023-03-03T13:22:23.502Z,6.77
2023-03-03T13:24:59.314Z,6.93
2023-03-03T13:27:33.249Z,6.92
2023-03-03T13:30:02.657Z,7.03
2023-03-03T13:32:37.438Z,7.04
2023-03-03T13:35:08.643Z,7.08
2023-03-03T13:37:41.105Z,6.99
2023-03-03T13:40:17.694Z,7.03
2023-03-03T13:42:49.796Z,7.04
2023-03-03T13:45:20.044Z,6.99
2023-03-03T13:47:51.218Z,7.00
2023-03-03T13:50:23.741Z,6.90
2023-03-03T13:53:01.921Z,6.97
2023-03-03T13:55:31.612Z,7.15
2023-03-03T13:58:09.920Z,7.23
2023-03-03T14:00:49.386Z,7.19
2023-03-03T14:03:27.333Z,7.17
2023-03-03T14:05:58.968Z,7.23
2023-03-03T14:08:43.203Z,7.27
2023-03-03T14:11:13.051Z,7.34
2023-03-03T14:13:46.204Z,7.32
2023-03-03T14:16:18.997Z,7.34
2023-03-03T14:18:55.452Z,7.27
2023-03-03T14:21:29.525Z,7.38
2023-03-03T14:24:00.798Z,7.41
2023-03-03T14:26:28.729Z,7.43
2023-03-03T14:29:20.294Z,7.53
2023-03-03T14:31:47.915Z,7.57
2023-03-03T14:34:28.269Z,7.53
2023-03-03T14:37:00.552Z,7.53
2023-03-03T14:39:33.487Z,7.64
2023-03-03T14:42:01.662Z,7.67
2023-03-03T14:44:34.090Z,7.68
2023-03-03T14:47:14.067Z,7.63
2023-03-03T14:49:41.837Z,7.57
2023-03-03T14:52:20.899Z,7.62
2023-03-03T14:54:50.464Z,7.70
2023-03-03T14:57:19.776Z,7.68
2023-03-03T14:59:59.734Z,7.70
2023-03-03T15:02:31.579Z,7.73
2023-03-03T15:05:20.138Z,7.76
2023-03-03T15:07:50.326Z,7.81
2023-03-03T15:10:31.923Z,7.80
2023-03-03T15:13:00.159Z,7.79
2023-03-03T15:15:29.958Z,7.80
2023-03-03T15:18:01.926Z,7.74
2023-03-03T15:20:42.451Z,7.73
2023-03-03T15:23:31.306Z,7.72
2023-03-03T15:26:01.023Z,7.57
2023-03-03T15:28:44.768Z,7.62
2023-03-03T15:31:19.976Z,7.64
2023-03-03T15:33:54.356Z,7.58
2023-03-03T15:36:30.405Z,7.65
2023-03-03T15:39:04.566Z,7.51
2023-03-03T15:41:39.807Z,7.46
2023-03-03T15:44:15.204Z,7.39
2023-03-03T15:46:54.970Z,7.39
2023-03-03T15:49:33.467Z,7.47
2023-03-03T15:52:21.359Z,7.45
2023-03-03T15:54:55.483Z,7.43
2023-03-03T15:57:27.973Z,7.39
2023-03-03T16:00:22.241Z,7.36
2023-03-03T16:02:54.159Z,7.22
2023-03-03T16:05:25.035Z,7.33
2023-03-03T16:08:00.937Z,7.29
2023-03-03T16:10:36.238Z,7.29
2023-03-03T16:13:17.632Z,7.25
2023-03-03T16:15:53.406Z,7.21
2023-03-03T16:18:30.390Z,7.20
2023-03-03T16:21:07.176Z,7.24
2023-03-03T16:23:41.025Z,7.27
2023-03-03T16:26:17.120Z,7.23
2023-03-03T16:28:59.599Z,7.16
2023-03-03T16:31:30.752Z,7.11
2023-03-03T16:34:03.429Z,7.10
2023-03-03T16:36:36.379Z,7.11
2023-03-03T16:39:06.432Z,7.09
2023-03-03T16:41:47.357Z,7.08
2023-03-03T16:44:24.561Z,7.03
2023-03-03T16:46:52.456Z,6.94
2023-03-03T16:49:26.765Z,6.99
2023-03-03T16:51:58.017Z,6.94
2023-03-03T16:54:33.679Z,6.91
2023-03-03T16:57:09.960Z,6.85
2023-03-03T16:59:45.988Z,6.83
2023-03-03T17:02:35.639Z,6.74
2023-03-03T17:05:07.606Z,6.78
2023-03-03T17:07:44.550Z,6.73
2023-03-03T17:10:24.040Z,6.66
2023-03-03T17:13:10.755Z,6.63
2023-03-03T17:15:46.389Z,6.60
2023-03-03T17:18:16.146Z,6.54
2023-03-03T17:20:52.499Z,6.43
2023-03-03T17:23:32.536Z,6.42
2023-03-03T17:26:07.259Z,6.30
2023-03-03T17:28:44.614Z,6.30
2023-03-03T17:31:20.420Z,6.25
2023-03-03T17:34:03.409Z,6.23
2023-03-03T17:36:45.887Z,6.16
2023-03-03T17:39:36.692Z,6.14
2023-03-03T17:42:09.849Z,6.10
2023-03-03T17:44:42.417Z,6.08
2023-03-03T17:47:12.399Z,6.06
2023-03-03T17:50:05.011Z,6.08
2023-03-03T17:53:06.773Z,6.02
2023-03-03T17:55:45.667Z,5.95
2023-03-03T17:58:25.850Z,5.93
2023-03-03T18:01:00.952Z,5.88
2023-03-03T18:04:14.687Z,5.90
2023-03-03T18:06:55.463Z,5.88
2023-03-03T18:09:31.700Z,5.78
2023-03-03T18:12:04.461Z,5.78
2023-03-03T18:14:46.862Z,5.73
2023-03-03T18:17:41.256Z,5.65
2023-03-03T18:20:42.360Z,5.65
2023-03-03T18:23:31.318Z,5.65
2023-03-03T18:26:01.638Z,5.69
2023-03-03T18:28:47.414Z,5.60
2023-03-03T18:31:24.576Z,5.58
2023-03-03T18:34:09.435Z,5.54
2023-03-03T18:36:39.915Z,5.48
2023-03-03T18:39:14.833Z,5.44
2023-03-03T18:42:30.348Z,5.32
2023-03-03T18:45:11.676Z,5.46
2023-03-03T18:47:59.407Z,5.32
2023-03-03T18:50:32.902Z,5.32
2023-03-03T18:53:27.260Z,5.23
2023-03-03T18:55:56.420Z,5.23
2023-03-03T18:58:34.613Z,5.20
2023-03-03T19:01:39.142Z,5.15
2023-03-03T19:04:23.005Z,5.04
2023-03-03T19:07:26.863Z,4.99
2023-03-03T19:10:01.461Z,5.00
2023-03-03T19:13:02.615Z,5.12
2023-03-03T19:15:50.363Z,5.03
2023-03-03T19:18:24.952Z,5.02
2023-03-03T19:21:01.238Z,4.97
2023-03-03T19:23:54.416Z,4.96
2023-03-03T19:26:42.061Z,4.88
2023-03-03T19:29:40.251Z,4.87
2023-03-03T19:32:22.531Z,4.80
2023-03-03T19:34:56.789Z,4.65
2023-03-03T19:37:37.556Z,4.63
2023-03-03T19:40:16.251Z,4.58
2023-03-03T19:42:47.676Z,4.55
2023-03-03T19:45:28.328Z,4.53
2023-03-03T19:48:03.531Z,4.53
2023-03-03T19:50:40.239Z,4.51
2023-03-03T19:53:32.475Z,4.41
2023-03-03T19:56:16.431Z,4.42
2023-03-03T19:58:55.658Z,4.36
2023-03-03T20:01:25.922Z,4.32
2023-03-03T20:04:04.986Z,4.23
2023-03-03T20:06:45.446Z,4.15
2023-03-03T20:09:22.327Z,4.04
2023-03-03T20:11:59.574Z,3.98
2023-03-03T20:14:44.259Z,3.95
2023-03-03T20:17:33.160Z,3.90
2023-03-03T20:20:06.800Z,3.89
2023-03-03T20:22:39.175Z,3.79
2023-03-03T20:25:16.177Z,3.69
2023-03-03T20:27:48.711Z,3.75
2023-03-03T20:30:28.735Z,3.70
2023-03-03T20:33:12.508Z,3.71
2023-03-03T20:35:48.664Z,3.62
2023-03-03T20:38:24.630Z,3.60
2023-03-03T20:41:05.355Z,3.62
2023-03-03T20:43:46.044Z,3.60
2023-03-03T20:46:20.102Z,3.53
2023-03-03T20:49:02.397Z,3.59
2023-03-03T20:51:36.183Z,3.46
2023-03-03T20:54:09.667Z,3.29
2023-03-03T20:56:44.678Z,3.43
2023-03-03T20:59:19.872Z,3.52
2023-03-03T21:01:54.964Z,3.54
2023-03-03T21:04:25.773Z,3.44
2023-03-03T21:06:53.851Z,3.45
2023-03-03T21:09:27.500Z,3.47
2023-03-03T21:11:59.511Z,3.41
2023-03-03T21:14:29.284Z,3.33
2023-03-03T21:16:58.444Z,3.09
2023-03-03T21:19:28.389Z,2.93
2023-03-03T21:21:58.523Z,2.75
2023-03-03T21:24:52.581Z,2.80
2023-03-03T21:27:32.246Z,2.94
2023-03-03T21:30:05.086Z,3.07
2023-03-03T21:32:38.522Z,3.12
2023-03-03T21:35:08.353Z,3.12
2023-03-03T21:37:45.186Z,3.01
2023-03-03T21:40:14.994Z,2.58
2023-03-03T21:42:45.060Z,2.52
2023-03-03T21:45:14.325Z,2.36
2023-03-03T21:47:42.159Z,2.35
2023-03-03T21:50:11.490Z,2.11
2023-03-03T21:52:39.291Z,1.82
2023-03-03T21:55:08.319Z,1.45
2023-03-03T21:57:36.114Z,1.49
2023-03-03T22:00:06.437Z,1.33
2023-03-03T22:02:34.081Z,1.27
2023-03-03T22:05:03.185Z,1.25
2023-03-03T22:07:32.555Z,1.06
2023-03-03T22:10:00.307Z,0.86
2023-03-03T22:12:27.921Z,0.79
2023-03-03T22:14:55.553Z,0.58
2023-03-03T22:17:25.547Z,0.55
2023-03-03T22:19:53.526Z,0.52
2023-03-03T22:22:21.078Z,0.33
2023-03-03T22:24:49.956Z,0.20
2023-03-03T22:27:20.128Z,0.31
2023-03-03T22:29:47.853Z,0.40
2023-03-03T22:32:15.560Z,0.40
2023-03-03T22:34:44.676Z,0.50
2023-03-03T22:37:12.352Z,0.50
2023-03-03T22:39:39.963Z,0.59
2023-03-03T22:42:07.610Z,0.83
2023-03-03T22:44:35.270Z,1.09
2023-03-03T22:47:02.808Z,0.92
2023-03-03T22:49:30.643Z,0.74
2023-03-03T22:52:00.892Z,0.90
2023-03-03T22:54:28.537Z,0.90
2023-03-03T22:56:56.385Z,0.94
2023-03-03T22:59:24.171Z,1.36
2023-03-03T23:01:51.758Z,1.45
2023-03-03T23:04:19.408Z,1.53
2023-03-03T23:06:47.035Z,1.36
2023-03-03T23:09:16.000Z,1.02
2023-03-03T23:11:43.689Z,0.90
2023-03-03T23:14:11.495Z,0.75
2023-03-03T23:16:39.172Z,0.88
2023-03-03T23:19:06.771Z,0.91
2023-03-03T23:21:34.365Z,0.92
2023-03-03T23:24:02.001Z,0.76
2023-03-03T23:26:31.318Z,0.67
2023-03-03T23:28:58.929Z,0.59
2023-03-03T23:31:27.088Z,0.50
2023-03-03T23:33:54.883Z,0.53
2023-03-03T23:36:22.557Z,0.40
2023-03-03T23:38:50.256Z,0.47
2023-03-03T23:41:17.986Z,0.17
2023-03-03T23:43:47.204Z,0.12
2023-03-03T23:46:15.399Z,0.15
2023-03-03T23:48:43.092Z,-0.05
2023-03-03T23:51:10.758Z,-0.10
2023-03-03T23:53:38.420Z,-0.11
2023-03-03T23:56:07.043Z,-0.21
2023-03-03T23:58:34.730Z,-0.14
